Flight Track Log - Related Links

Times and Time Zones

All times are in EDT time to prevent confusion due to time zone crossing. See the VNR109 flight status page for this flight to view local times or setup timezone preferences in your user account.

Time Position Orientation Groundspeed Altitude Reporting Facility
EDT Latitude Longitude Course Direction KTS MPH feet Rate Location/Type
Sat 04:22:00 PM 30.1649 -85.4754 125° Southeast  Level Estimated
Sat 04:23:00 PM 30.1418 -85.4374 125° Southeast  Level Estimated
Sat 04:24:00 PM 30.1188 -85.3995 125° Southeast  Level Estimated
Sat 04:25:00 PM 30.1299 -85.3567 73° East  Level FlightAware Approximate
Sat 04:26:00 PM 30.1410 -85.3139 73° East  Level FlightAware Approximate
Sat 04:27:00 PM 30.1521 -85.2711 73° East  Level FlightAware Approximate
Sat 04:28:00 PM 30.1631 -85.2283 73° East  Level FlightAware Approximate
Sat 04:29:00 PM 30.1402 -85.1924 109° East  Level Estimated
Sat 04:30:00 PM 30.1348 -85.1481 98° East  Level FlightAware Approximate
Sat 04:31:00 PM 30.1264 -85.1044 103° East  Level FlightAware Approximate
Sat 04:31:22 PM 30.0147 -84.4494 107° East 284 327 7,500  Level Jacksonville Center
Sat 04:32:00 PM 30.1179 -85.0608 103° East  Level FlightAware Approximate
Sat 04:32:22 PM 29.9972 -84.3581 102° East 284 327 7,500  Level Jacksonville Center
Sat 04:33:00 PM 30.1094 -85.0171 103° East  Level FlightAware Approximate
Sat 04:33:22 PM 29.9794 -84.2689 103° East 289 333 7,500  Level Jacksonville Center
Sat 04:34:00 PM 30.0976 -84.9725 107° East  Level FlightAware Approximate
Sat 04:34:22 PM 29.9572 -84.1800 106° East 284 327 7,500  Level Jacksonville Center
Sat 04:35:00 PM 30.0858 -84.9281 107° East  Level FlightAware Approximate
Sat 04:35:22 PM 29.9372 -84.0839 103° East 284 327 7,500  Level Jacksonville Center
Sat 04:36:00 PM 30.0739 -84.8836 107° East  Level FlightAware Approximate
Sat 04:36:22 PM 29.9172 -83.9997 105° East 301 346 7,500  Level Jacksonville Center
Sat 04:37:22 PM 29.8950 -83.9131 106° East 308 354 7,500  Level Jacksonville Center
Sat 04:38:22 PM 29.8242 -83.8814 159° South 248 285 7,500  Level Jacksonville Center
Sat 04:39:22 PM 29.7494 -83.8494 160° South 262 302 7,500  Level Jacksonville Center
Sat 04:40:22 PM 29.6869 -83.8106 152° Southeast 279 321 7,500 550 Level Jacksonville Center
Sat 04:41:22 PM 29.6058 -83.7572 150° Southeast 284 327 8,600 1,350 Climbing Jacksonville Center
Sat 04:42:22 PM 29.5456 -83.7208 152° Southeast 263 303 10,200 1,450 Climbing Jacksonville Center
Sat 04:43:22 PM 29.4875 -83.6822 150° Southeast 257 296 11,500 650 Climbing Jacksonville Center
Sat 04:44:22 PM 29.4167 -83.6364 151° Southeast 257 296 11,500  Level Jacksonville Center
Sat 04:45:22 PM 29.3419 -83.5881 151° Southeast 285 328 11,500  Level Jacksonville Center
Sat 04:46:22 PM 29.2669 -83.5378 150° Southeast 308 354 11,500  Level Jacksonville Center
Sat 04:47:22 PM 29.1919 -83.4919 152° Southeast 308 354 11,500  Level Jacksonville Center
Sat 04:48:22 PM 29.1172 -83.4439 151° Southeast 303 349 11,500  Level Jacksonville Center
Sat 04:49:22 PM 29.0442 -83.3961 150° Southeast 303 349 11,500  Level Jacksonville Center
Sat 04:50:22 PM 28.9672 -83.3506 153° Southeast 303 349 11,500  Level Jacksonville Center
Sat 04:51:22 PM 28.8944 -83.3028 150° Southeast 303 349 11,500  Level Jacksonville Center
Sat 04:52:22 PM 28.8194 -83.2575 152° Southeast 303 349 11,500  Level Jacksonville Center
Sat 04:53:22 PM 28.7464 -83.2100 150° Southeast 303 349 11,500  Level Jacksonville Center
Sat 04:55:20 PM 28.6000 -83.1333 155° Southeast 298 343 11,500  Level Tampa TRACON
Sat 04:56:26 PM 28.5167 -83.0833 152° Southeast 298 343 11,500  Level Tampa TRACON
Sat 04:57:26 PM 28.4333 -83.0500 161° South 297 342 11,500  Level Tampa TRACON
Sat 04:58:26 PM 28.3667 -83.0167 156° South 296 341 11,500  Level Tampa TRACON
Sat 04:59:26 PM 28.2833 -82.9833 161° South 293 337 11,500  Level Tampa TRACON
Sat 05:00:20 PM 28.2167 -82.9500 156° South 292 336 11,500  Level Tampa TRACON
Sat 05:01:20 PM 28.1500 -82.9167 156° South 294 338 11,500  Level Tampa TRACON
Sat 05:02:20 PM 28.0667 -82.8833 161° South 293 337 11,500  Level Tampa TRACON
Sat 05:03:20 PM 28.0000 -82.8333 146° Southeast 293 337 11,500  Level Tampa TRACON
Sat 05:04:20 PM 27.9167 -82.8000 161° South 292 336 11,500  Level Tampa TRACON
Sat 05:05:26 PM 27.8333 -82.7667 161° South 290 334 11,500  Level Tampa TRACON
Sat 05:06:20 PM 27.7667 -82.7333 156° South 290 334 11,500  Level Tampa TRACON
Sat 05:07:21 PM 27.7000 -82.7000 156° South 290 334 11,500  Level Tampa TRACON
Sat 05:08:21 PM 27.6167 -82.6667 160° South 290 334 11,500  Level Tampa TRACON
Sat 05:10:21 PM 27.4686 -82.6419 172° South 326 375 11,500  Level Miami Center
Sat 05:11:21 PM 27.3875 -82.6333 175° South 306 352 11,500  Level Miami Center
Sat 05:12:21 PM 27.3064 -82.6269 176° South 294 338 11,500  Level Miami Center
Sat 05:13:21 PM 27.2275 -82.6183 174° South 289 333 11,500  Level Miami Center
Sat 05:14:21 PM 27.1486 -82.6072 173° South 289 333 11,500  Level Miami Center
Sat 05:15:21 PM 27.0794 -82.5667 152° Southeast 289 333 11,500  Level Miami Center
Sat 05:16:21 PM 27.0194 -82.5008 136° Southeast 282 325 11,500  Level Miami Center
Sat 05:17:21 PM 26.9742 -82.4264 124° Southeast 287 330 11,500  Level Miami Center
Sat 05:18:21 PM 26.9486 -82.3344 107° East 287 330 11,500  Level Miami Center
Sat 05:19:21 PM 26.9267 -82.2472 106° East 293 337 11,500  Level Miami Center
Sat 05:20:21 PM 26.9092 -82.1533 102° East 298 343 11,500 -350 Level Miami Center
Sat 05:21:21 PM 26.8894 -82.0639 104° East 298 343 10,800 -1,150 Descending Miami Center
Sat 05:22:21 PM 26.8717 -81.9817 104° East 298 343 9,200 -1,550 Descending Miami Center
Sat 05:23:21 PM 26.8539 -81.8925 103° East 291 335 7,700 -1,500 Descending Miami Center
Sat 05:24:21 PM 26.8358 -81.8125 104° East 276 318 6,200 -1,100 Descending Miami Center
Sat 05:25:21 PM 26.8175 -81.7350 105° East 271 312 5,500 -350 Descending Miami Center
Sat 05:26:21 PM 26.7997 -81.6436 102° East 265 305 5,500  Level Miami Center
Sat 05:27:21 PM 26.7833 -81.5639 103° East 265 305 5,500  Level Miami Center
Sat 05:28:21 PM 26.7672 -81.4864 103° East 265 305 5,500  Level Miami Center
Sat 05:29:21 PM 26.7506 -81.4183 105° East 258 297 5,500  Level Miami Center
Sat 05:30:21 PM 26.7344 -81.3339 102° East 258 297 5,500  Level Miami Center
Sat 05:31:21 PM 26.7244 -81.2522 98° East 262 302 5,500 -400 Level Miami Center
Sat 05:32:21 PM 26.7183 -81.1731 95° East 257 296 4,700 -950 Descending Miami Center
Sat 05:33:21 PM 26.7183 -81.1033 90° East 242 278 3,600 -600 Descending Miami Center
Sat 05:34:21 PM 26.7178 -81.0450 91° East 215 247 3,500 -50 Descending Miami Center
Sat 05:35:21 PM 26.7136 -80.9775 94° East 215 247 3,500  Level Miami Center
Sat 05:36:21 PM 26.7117 -80.9008 92° East 215 247 3,500  Level Miami Center
Sat 05:37:21 PM 26.7281 -80.8339 75° East 215 247 3,500  Level Miami Center
Sat 05:38:21 PM 26.7464 -80.7717 72° East 225 259 3,500  Level Miami Center
Sat 05:39:22 PM 26.7689 -80.7097 68° East 225 259 3,500  Level Miami Center
Sat 05:40:21 PM 26.7897 -80.6311 73° East 234 269 3,500  Level Miami Center
Sat 05:41:21 PM 26.7575 -80.5836 127° Southeast 196 226 3,500 -250 Level Miami Center
Sat 05:42:21 PM 26.7256 -80.5244 121° Southeast 201 231 3,000 -250 Descending Miami Center
Sat 05:43:21 PM 26.7103 -80.4728 108° East 201 231 3,000  Level Miami Center
Sat 05:44:22 PM 26.6950 -80.4097 105° East 192 221 3,000  Level Miami Center
Sat 05:46:00 PM 26.6815 -80.2766 95° East  Level FlightAware Approximate
Sat 05:53:00 PM 26.6832 -80.0956 95° East  Level Estimated
Sat 05:54:00 PM 26.6832 -80.0956 95° East  Level Estimated
Sat 05:55:00 PM 26.6832 -80.0956 95° East  Level Estimated
Sat 05:56:00 PM 26.6832 -80.0956 95° East  Level Estimated
Sat 05:57:00 PM 26.6832 -80.0956 95° East  Level Estimated
Sat 05:58:00 PM 26.6832 -80.0956 95° East  Level Estimated
Sat 05:59:00 PM 26.6832 -80.0956 95° East  Level Estimated
Sat 06:00:00 PM 26.6832 -80.0956 95° East  Level Estimated

Login

Don't have an account? Register now (free) for customized features, flight alerts, and more!